sensor_id;sensor_type;location;lat;lon;timestamp;pressure;altitude;pressure_sealevel;temperature;humidity
28797;BME280;24974;54.444;18.560;2022-12-10T00:00:10;100749.75;;;2.90;58.90
28797;BME280;24974;54.444;18.560;2022-12-10T00:02:41;100751.72;;;3.00;58.44
28797;BME280;24974;54.444;18.560;2022-12-10T00:05:12;100743.19;;;3.18;57.90
28797;BME280;24974;54.444;18.560;2022-12-10T00:07:43;100751.19;;;3.03;58.17
28797;BME280;24974;54.444;18.560;2022-12-10T00:10:14;100743.91;;;2.76;59.66
28797;BME280;24974;54.444;18.560;2022-12-10T00:12:45;100746.94;;;3.12;58.64
28797;BME280;24974;54.444;18.560;2022-12-10T00:15:16;100759.72;;;2.58;59.67
28797;BME280;24974;54.444;18.560;2022-12-10T00:17:47;100753.31;;;2.42;59.86
28797;BME280;24974;54.444;18.560;2022-12-10T00:20:18;100752.28;;;3.02;58.13
28797;BME280;24974;54.444;18.560;2022-12-10T00:22:49;100754.28;;;3.49;56.71
28797;BME280;24974;54.444;18.560;2022-12-10T00:25:19;100751.41;;;3.28;57.52
28797;BME280;24974;54.444;18.560;2022-12-10T00:27:50;100752.78;;;3.63;56.18
28797;BME280;24974;54.444;18.560;2022-12-10T00:30:21;100749.94;;;3.48;56.52
28797;BME280;24974;54.444;18.560;2022-12-10T00:32:52;100762.16;;;2.86;58.34
28797;BME280;24974;54.444;18.560;2022-12-10T00:35:23;100761.31;;;2.10;60.83
28797;BME280;24974;54.444;18.560;2022-12-10T00:37:56;100761.28;;;3.07;58.04
28797;BME280;24974;54.444;18.560;2022-12-10T00:40:27;100751.66;;;3.22;55.98
28797;BME280;24974;54.444;18.560;2022-12-10T00:42:58;100749.97;;;2.89;54.87
28797;BME280;24974;54.444;18.560;2022-12-10T00:45:29;100755.34;;;3.11;55.47
28797;BME280;24974;54.444;18.560;2022-12-10T00:48:00;100746.34;;;3.37;55.12
28797;BME280;24974;54.444;18.560;2022-12-10T00:50:31;100747.81;;;3.55;54.48
28797;BME280;24974;54.444;18.560;2022-12-10T00:53:02;100747.44;;;3.41;54.64
28797;BME280;24974;54.444;18.560;2022-12-10T00:55:33;100749.97;;;3.53;54.14
28797;BME280;24974;54.444;18.560;2022-12-10T00:58:04;100750.50;;;3.18;55.10
28797;BME280;24974;54.444;18.560;2022-12-10T01:00:34;100759.16;;;2.83;55.28
28797;BME280;24974;54.444;18.560;2022-12-10T01:03:05;100752.94;;;2.87;54.64
28797;BME280;24974;54.444;18.560;2022-12-10T01:05:36;100757.22;;;3.42;54.12
28797;BME280;24974;54.444;18.560;2022-12-10T01:08:07;100749.91;;;3.43;54.58
28797;BME280;24974;54.444;18.560;2022-12-10T01:10:38;100754.41;;;3.64;54.13
28797;BME280;24974;54.444;18.560;2022-12-10T01:13:09;100748.91;;;3.59;53.82
28797;BME280;24974;54.444;18.560;2022-12-10T01:15:40;100749.78;;;3.27;55.02
28797;BME280;24974;54.444;18.560;2022-12-10T01:18:11;100747.25;;;3.16;56.44
28797;BME280;24974;54.444;18.560;2022-12-10T01:20:41;100739.22;;;3.31;56.50
28797;BME280;24974;54.444;18.560;2022-12-10T01:23:13;100759.50;;;3.55;55.24
28797;BME280;24974;54.444;18.560;2022-12-10T01:25:43;100759.28;;;3.62;55.14
28797;BME280;24974;54.444;18.560;2022-12-10T01:28:14;100759.13;;;3.42;55.67
28797;BME280;24974;54.444;18.560;2022-12-10T01:30:45;100762.72;;;3.52;55.81
28797;BME280;24974;54.444;18.560;2022-12-10T01:33:16;100759.28;;;3.62;55.64
28797;BME280;24974;54.444;18.560;2022-12-10T01:35:47;100756.63;;;3.35;56.69
28797;BME280;24974;54.444;18.560;2022-12-10T01:38:18;100767.94;;;3.54;55.93
28797;BME280;24974;54.444;18.560;2022-12-10T01:40:49;100753.84;;;3.25;55.51
28797;BME280;24974;54.444;18.560;2022-12-10T01:43:20;100751.94;;;3.62;54.72
28797;BME280;24974;54.444;18.560;2022-12-10T01:45:52;100748.97;;;3.64;54.77
28797;BME280;24974;54.444;18.560;2022-12-10T01:48:22;100748.31;;;3.47;54.46
28797;BME280;24974;54.444;18.560;2022-12-10T01:50:54;100744.63;;;3.68;54.77
28797;BME280;24974;54.444;18.560;2022-12-10T01:53:25;100754.72;;;3.30;56.14
28797;BME280;24974;54.444;18.560;2022-12-10T01:55:57;100747.63;;;3.67;54.76
28797;BME280;24974;54.444;18.560;2022-12-10T01:58:28;100747.94;;;3.70;54.66
28797;BME280;24974;54.444;18.560;2022-12-10T02:10:18;100746.34;;;2.78;57.34
28797;BME280;24974;54.444;18.560;2022-12-10T02:12:52;100748.41;;;3.25;55.79
28797;BME280;24974;54.444;18.560;2022-12-10T02:15:27;100748.41;;;3.25;56.17
28797;BME280;24974;54.444;18.560;2022-12-10T02:18:27;100740.44;;;2.81;57.12
28797;BME280;24974;54.444;18.560;2022-12-10T02:21:02;100739.69;;;2.64;58.15
28797;BME280;24974;54.444;18.560;2022-12-10T02:23:47;100741.78;;;2.57;57.21
28797;BME280;24974;54.444;18.560;2022-12-10T06:37:07;100745.53;;;2.29;56.43
28797;BME280;24974;54.444;18.560;2022-12-10T06:39:38;100759.69;;;1.92;57.22
28797;BME280;24974;54.444;18.560;2022-12-10T06:42:09;100769.06;;;2.45;55.91
28797;BME280;24974;54.444;18.560;2022-12-10T06:44:40;100776.00;;;2.58;55.72
28797;BME280;24974;54.444;18.560;2022-12-10T06:47:12;100770.75;;;2.73;55.17
28797;BME280;24974;54.444;18.560;2022-12-10T06:49:43;100773.28;;;2.36;55.22
28797;BME280;24974;54.444;18.560;2022-12-10T06:52:14;100779.47;;;2.80;55.07
28797;BME280;24974;54.444;18.560;2022-12-10T06:54:45;100789.00;;;3.42;53.68
28797;BME280;24974;54.444;18.560;2022-12-10T06:57:16;100783.69;;;3.57;52.55
28797;BME280;24974;54.444;18.560;2022-12-10T06:59:47;100786.97;;;3.59;52.53
28797;BME280;24974;54.444;18.560;2022-12-10T07:02:18;100782.91;;;3.24;53.41
28797;BME280;24974;54.444;18.560;2022-12-10T07:04:49;100785.06;;;3.22;53.65
28797;BME280;24974;54.444;18.560;2022-12-10T07:07:20;100781.41;;;3.39;53.67
28797;BME280;24974;54.444;18.560;2022-12-10T07:09:51;100782.81;;;3.46;53.24
28797;BME280;24974;54.444;18.560;2022-12-10T07:12:21;100791.81;;;3.20;54.34
28797;BME280;24974;54.444;18.560;2022-12-10T07:14:52;100782.13;;;3.29;53.55
28797;BME280;24974;54.444;18.560;2022-12-10T07:17:23;100785.06;;;2.95;55.11
28797;BME280;24974;54.444;18.560;2022-12-10T07:19:54;100786.94;;;3.54;52.95
28797;BME280;24974;54.444;18.560;2022-12-10T07:22:25;100788.66;;;3.01;53.98
28797;BME280;24974;54.444;18.560;2022-12-10T07:24:56;100788.72;;;3.06;54.07
28797;BME280;24974;54.444;18.560;2022-12-10T07:27:27;100798.19;;;2.76;54.51
28797;BME280;24974;54.444;18.560;2022-12-10T07:29:58;100795.09;;;2.95;54.65
28797;BME280;24974;54.444;18.560;2022-12-10T07:32:29;100797.31;;;2.98;54.46
28797;BME280;24974;54.444;18.560;2022-12-10T07:35:00;100799.97;;;2.44;56.73
28797;BME280;24974;54.444;18.560;2022-12-10T07:37:33;100788.94;;;2.50;55.65
28797;BME280;24974;54.444;18.560;2022-12-10T07:40:04;100784.69;;;2.87;55.67
28797;BME280;24974;54.444;18.560;2022-12-10T07:42:35;100784.25;;;2.95;55.23
28797;BME280;24974;54.444;18.560;2022-12-10T07:45:07;100782.69;;;3.04;55.24
28797;BME280;24974;54.444;18.560;2022-12-10T07:47:38;100784.88;;;3.34;54.02
28797;BME280;24974;54.444;18.560;2022-12-10T07:50:09;100778.47;;;2.86;54.75
28797;BME280;24974;54.444;18.560;2022-12-10T07:52:40;100774.97;;;3.18;54.42
28797;BME280;24974;54.444;18.560;2022-12-10T07:55:11;100777.28;;;3.36;53.69
28797;BME280;24974;54.444;18.560;2022-12-10T07:57:41;100782.91;;;3.24;54.08
28797;BME280;24974;54.444;18.560;2022-12-10T08:00:13;100783.53;;;3.36;53.72
28797;BME280;24974;54.444;18.560;2022-12-10T08:02:44;100795.94;;;3.27;54.14
28797;BME280;24974;54.444;18.560;2022-12-10T08:05:15;100794.53;;;3.52;53.24
28797;BME280;24974;54.444;18.560;2022-12-10T08:07:46;100804.63;;;3.24;54.09
28797;BME280;24974;54.444;18.560;2022-12-10T08:10:17;100801.53;;;3.80;52.67
28797;BME280;24974;54.444;18.560;2022-12-10T08:12:48;100809.84;;;3.31;54.19
28797;BME280;24974;54.444;18.560;2022-12-10T08:15:19;100808.41;;;3.23;54.45
28797;BME280;24974;54.444;18.560;2022-12-10T08:17:50;100809.03;;;2.76;55.13
28797;BME280;24974;54.444;18.560;2022-12-10T08:20:22;100807.81;;;3.16;54.91
28797;BME280;24974;54.444;18.560;2022-12-10T08:22:52;100809.53;;;3.27;53.98
28797;BME280;24974;54.444;18.560;2022-12-10T08:25:24;100810.16;;;2.80;54.77
28797;BME280;24974;54.444;18.560;2022-12-10T08:27:55;100808.47;;;3.01;54.53
28797;BME280;24974;54.444;18.560;2022-12-10T08:30:28;100802.91;;;3.13;54.37
28797;BME280;24974;54.444;18.560;2022-12-10T08:32:59;100807.25;;;3.14;54.08
28797;BME280;24974;54.444;18.560;2022-12-10T08:35:30;100807.59;;;3.55;52.97
28797;BME280;24974;54.444;18.560;2022-12-10T08:38:01;100810.06;;;2.97;54.28
28797;BME280;24974;54.444;18.560;2022-12-10T08:40:32;100815.19;;;2.94;54.49
28797;BME280;24974;54.444;18.560;2022-12-10T08:43:04;100814.44;;;2.98;54.73
28797;BME280;24974;54.444;18.560;2022-12-10T08:45:35;100825.31;;;2.76;54.78
28797;BME280;24974;54.444;18.560;2022-12-10T08:48:06;100816.56;;;3.55;53.21
28797;BME280;24974;54.444;18.560;2022-12-10T08:50:38;100822.81;;;3.24;53.76
28797;BME280;24974;54.444;18.560;2022-12-10T08:53:09;100822.28;;;3.59;53.18
28797;BME280;24974;54.444;18.560;2022-12-10T08:55:40;100816.72;;;3.76;53.03
28797;BME280;24974;54.444;18.560;2022-12-10T08:58:11;100822.03;;;3.60;52.92
28797;BME280;24974;54.444;18.560;2022-12-10T09:00:42;100818.84;;;3.36;52.69
28797;BME280;24974;54.444;18.560;2022-12-10T09:03:13;100820.38;;;3.22;53.53
28797;BME280;24974;54.444;18.560;2022-12-10T09:05:44;100824.91;;;3.17;53.69
28797;BME280;24974;54.444;18.560;2022-12-10T09:08:15;100821.50;;;2.99;54.39
28797;BME280;24974;54.444;18.560;2022-12-10T09:10:46;100816.06;;;2.99;54.25
28797;BME280;24974;54.444;18.560;2022-12-10T09:13:17;100814.34;;;3.52;53.59
28797;BME280;24974;54.444;18.560;2022-12-10T09:15:52;100813.38;;;4.06;51.87
28797;BME280;24974;54.444;18.560;2022-12-10T09:18:23;100817.78;;;4.12;52.09
28797;BME280;24974;54.444;18.560;2022-12-10T09:20:54;100814.09;;;4.33;51.04
28797;BME280;24974;54.444;18.560;2022-12-10T09:23:25;100820.97;;;2.75;54.70
28797;BME280;24974;54.444;18.560;2022-12-10T09:25:56;100813.59;;;3.94;52.19
28797;BME280;24974;54.444;18.560;2022-12-10T09:28:26;100815.66;;;3.45;52.84
28797;BME280;24974;54.444;18.560;2022-12-10T09:30:59;100815.78;;;3.97;52.38
28797;BME280;24974;54.444;18.560;2022-12-10T09:33:31;100813.19;;;3.43;53.35
28797;BME280;24974;54.444;18.560;2022-12-10T09:36:07;100815.47;;;2.70;55.05
28797;BME280;24974;54.444;18.560;2022-12-10T09:38:40;100818.53;;;3.65;53.21
28797;BME280;24974;54.444;18.560;2022-12-10T09:46:47;100808.50;;;3.33;54.67
28797;BME280;24974;54.444;18.560;2022-12-10T09:52:13;100805.69;;;3.92;52.53
28797;BME280;24974;54.444;18.560;2022-12-10T09:57:28;100797.47;;;3.82;52.66
28797;BME280;24974;54.444;18.560;2022-12-10T10:00:18;100799.59;;;4.17;52.20
28797;BME280;24974;54.444;18.560;2022-12-10T10:02:50;100793.38;;;3.80;53.33
28797;BME280;24974;54.444;18.560;2022-12-10T10:05:28;100796.78;;;4.07;52.80
28797;BME280;24974;54.444;18.560;2022-12-10T10:08:03;100792.97;;;4.03;52.97
28797;BME280;24974;54.444;18.560;2022-12-10T10:10:36;100799.13;;;4.41;51.58
28797;BME280;24974;54.444;18.560;2022-12-10T10:15:41;100794.03;;;4.55;51.18
28797;BME280;24974;54.444;18.560;2022-12-10T10:18:36;100804.59;;;4.46;51.01
28797;BME280;24974;54.444;18.560;2022-12-10T10:23:51;100807.47;;;4.19;51.80
28797;BME280;24974;54.444;18.560;2022-12-10T10:26:25;100804.41;;;4.73;50.24
28797;BME280;24974;54.444;18.560;2022-12-10T10:29:01;100804.94;;;4.65;50.88
28797;BME280;24974;54.444;18.560;2022-12-10T10:31:35;100804.03;;;3.91;52.92
28797;BME280;24974;54.444;18.560;2022-12-10T10:34:22;100801.47;;;3.70;53.65
28797;BME280;24974;54.444;18.560;2022-12-10T10:36:56;100797.94;;;3.74;53.58
28797;BME280;24974;54.444;18.560;2022-12-10T10:39:30;100791.47;;;3.43;54.28
28797;BME280;24974;54.444;18.560;2022-12-10T10:42:08;100800.91;;;4.15;52.32
28797;BME280;24974;54.444;18.560;2022-12-10T10:44:41;100800.84;;;4.62;51.63
28797;BME280;24974;54.444;18.560;2022-12-10T10:47:30;100805.63;;;4.30;51.70
28797;BME280;24974;54.444;18.560;2022-12-10T10:50:04;100796.34;;;5.09;50.56
28797;BME280;24974;54.444;18.560;2022-12-10T10:52:38;100795.75;;;4.76;51.42
28797;BME280;24974;54.444;18.560;2022-12-10T10:55:30;100790.34;;;4.91;50.65
28797;BME280;24974;54.444;18.560;2022-12-10T10:58:01;100793.59;;;4.93;50.78
28797;BME280;24974;54.444;18.560;2022-12-10T11:00:32;100791.22;;;5.38;49.57
28797;BME280;24974;54.444;18.560;2022-12-10T11:03:06;100786.81;;;6.03;48.72
28797;BME280;24974;54.444;18.560;2022-12-10T11:05:38;100792.53;;;5.96;48.20
28797;BME280;24974;54.444;18.560;2022-12-10T11:08:21;100781.63;;;5.76;49.61
28797;BME280;24974;54.444;18.560;2022-12-10T11:11:06;100781.31;;;6.18;47.95
28797;BME280;24974;54.444;18.560;2022-12-10T11:13:41;100780.16;;;6.34;47.41
28797;BME280;24974;54.444;18.560;2022-12-10T11:16:20;100777.25;;;6.65;47.05
28797;BME280;24974;54.444;18.560;2022-12-10T11:19:16;100780.94;;;6.40;47.01
28797;BME280;24974;54.444;18.560;2022-12-10T11:21:45;100782.13;;;6.13;47.47
28797;BME280;24974;54.444;18.560;2022-12-10T11:24:18;100779.16;;;6.10;48.34
28797;BME280;24974;54.444;18.560;2022-12-10T11:27:05;100786.72;;;6.28;47.41
28797;BME280;24974;54.444;18.560;2022-12-10T11:35:21;100780.56;;;5.46;49.08
28797;BME280;24974;54.444;18.560;2022-12-10T11:40:58;100775.50;;;6.89;46.62
28797;BME280;24974;54.444;18.560;2022-12-10T11:47:08;100783.94;;;6.38;47.34
28797;BME280;24974;54.444;18.560;2022-12-10T12:01:35;100773.31;;;6.42;47.37
28797;BME280;24974;54.444;18.560;2022-12-10T12:17:56;100776.63;;;4.61;52.15
28797;BME280;24974;54.444;18.560;2022-12-10T12:20:33;100778.88;;;4.84;51.29
28797;BME280;24974;54.444;18.560;2022-12-10T12:23:14;100782.09;;;4.71;51.94
28797;BME280;24974;54.444;18.560;2022-12-10T12:25:49;100783.00;;;5.07;51.10
28797;BME280;24974;54.444;18.560;2022-12-10T12:28:30;100779.22;;;5.23;50.73
28797;BME280;24974;54.444;18.560;2022-12-10T12:31:17;100769.88;;;6.11;49.14
28797;BME280;24974;54.444;18.560;2022-12-10T12:34:01;100775.81;;;7.85;44.57
28797;BME280;24974;54.444;18.560;2022-12-10T12:36:34;100772.59;;;9.30;42.73
28797;BME280;24974;54.444;18.560;2022-12-10T12:39:52;100759.94;;;9.80;40.00
28797;BME280;24974;54.444;18.560;2022-12-10T12:45:32;100761.38;;;9.45;40.99
28797;BME280;24974;54.444;18.560;2022-12-10T12:48:19;100763.22;;;8.99;41.58
28797;BME280;24974;54.444;18.560;2022-12-10T12:53:29;100766.81;;;10.52;38.33
28797;BME280;24974;54.444;18.560;2022-12-10T12:59:10;100765.03;;;10.01;39.36
28797;BME280;24974;54.444;18.560;2022-12-10T13:01:51;100762.50;;;9.91;38.88
28797;BME280;24974;54.444;18.560;2022-12-10T13:04:25;100763.34;;;10.19;38.09
28797;BME280;24974;54.444;18.560;2022-12-10T13:07:33;100768.94;;;10.41;37.95
28797;BME280;24974;54.444;18.560;2022-12-10T13:15:38;100772.34;;;8.75;40.63
28797;BME280;24974;54.444;18.560;2022-12-10T13:23:51;100782.47;;;7.45;43.55
28797;BME280;24974;54.444;18.560;2022-12-10T13:26:27;100784.78;;;6.88;45.42
28797;BME280;24974;54.444;18.560;2022-12-10T13:31:56;100787.34;;;6.05;47.59
28797;BME280;24974;54.444;18.560;2022-12-10T13:34:33;100790.66;;;5.46;49.12
28797;BME280;24974;54.444;18.560;2022-12-10T13:40:14;100791.78;;;4.36;52.03
28797;BME280;24974;54.444;18.560;2022-12-10T13:42:45;100786.22;;;4.11;53.40
28797;BME280;24974;54.444;18.560;2022-12-10T13:45:35;100788.31;;;3.99;53.63
28797;BME280;24974;54.444;18.560;2022-12-10T13:48:26;100785.72;;;3.72;54.53
28797;BME280;24974;54.444;18.560;2022-12-10T14:05:21;100799.94;;;3.20;55.60
28797;BME280;24974;54.444;18.560;2022-12-10T14:07:56;100794.25;;;2.89;56.02
28797;BME280;24974;54.444;18.560;2022-12-10T14:10:32;100807.50;;;2.86;55.96
28797;BME280;24974;54.444;18.560;2022-12-10T14:13:04;100806.19;;;3.15;55.78
28797;BME280;24974;54.444;18.560;2022-12-10T14:15:37;100807.13;;;3.04;55.60
28797;BME280;24974;54.444;18.560;2022-12-10T14:18:12;100810.56;;;2.67;56.87
28797;BME280;24974;54.444;18.560;2022-12-10T14:20:50;100805.06;;;2.62;56.89
28797;BME280;24974;54.444;18.560;2022-12-10T14:23:31;100808.41;;;2.96;55.86
28797;BME280;24974;54.444;18.560;2022-12-10T14:26:16;100803.75;;;2.65;56.73
28797;BME280;24974;54.444;18.560;2022-12-10T14:28:49;100795.59;;;2.21;58.12
28797;BME280;24974;54.444;18.560;2022-12-10T14:31:30;100797.72;;;1.97;58.73
28797;BME280;24974;54.444;18.560;2022-12-10T14:34:05;100798.25;;;2.38;57.52
28797;BME280;24974;54.444;18.560;2022-12-10T14:36:46;100799.53;;;1.53;59.72
28797;BME280;24974;54.444;18.560;2022-12-10T14:39:19;100795.22;;;2.12;58.43
28797;BME280;24974;54.444;18.560;2022-12-10T14:41:54;100795.34;;;2.01;58.45
28797;BME280;24974;54.444;18.560;2022-12-10T14:44:26;100798.56;;;2.19;58.02
28797;BME280;24974;54.444;18.560;2022-12-10T14:47:13;100798.84;;;1.79;59.16
28797;BME280;24974;54.444;18.560;2022-12-10T14:49:48;100805.72;;;1.87;58.61
28797;BME280;24974;54.444;18.560;2022-12-10T14:52:24;100803.06;;;1.92;58.83
28797;BME280;24974;54.444;18.560;2022-12-10T14:55:03;100801.59;;;2.01;58.03
28797;BME280;24974;54.444;18.560;2022-12-10T14:57:42;100803.72;;;1.99;57.78
28797;BME280;24974;54.444;18.560;2022-12-10T15:00:16;100801.53;;;1.79;58.85
28797;BME280;24974;54.444;18.560;2022-12-10T15:03:07;100805.97;;;1.85;58.18
28797;BME280;24974;54.444;18.560;2022-12-10T15:05:39;100809.00;;;1.89;57.71
28797;BME280;24974;54.444;18.560;2022-12-10T15:08:17;100804.59;;;1.49;58.35
28797;BME280;24974;54.444;18.560;2022-12-10T15:10:52;100809.63;;;1.12;59.97
28797;BME280;24974;54.444;18.560;2022-12-10T15:13:47;100807.88;;;1.51;58.53
28797;BME280;24974;54.444;18.560;2022-12-10T15:16:19;100799.97;;;0.99;60.52
28797;BME280;24974;54.444;18.560;2022-12-10T15:18:51;100800.47;;;1.13;60.15
28797;BME280;24974;54.444;18.560;2022-12-10T15:21:24;100800.56;;;1.18;59.56
28797;BME280;24974;54.444;18.560;2022-12-10T15:24:15;100801.47;;;1.57;58.03
28797;BME280;24974;54.444;18.560;2022-12-10T15:26:50;100809.84;;;1.22;59.06
28797;BME280;24974;54.444;18.560;2022-12-10T15:32:01;100801.31;;;1.30;59.37
28797;BME280;24974;54.444;18.560;2022-12-10T15:34:41;100801.63;;;1.51;58.33
28797;BME280;24974;54.444;18.560;2022-12-10T15:37:34;100803.09;;;1.25;59.29
28797;BME280;24974;54.444;18.560;2022-12-10T15:40:26;100804.28;;;1.29;59.05
28797;BME280;24974;54.444;18.560;2022-12-10T15:45:52;100805.91;;;1.30;58.79
28797;BME280;24974;54.444;18.560;2022-12-10T15:48:28;100805.53;;;1.09;59.35
28797;BME280;24974;54.444;18.560;2022-12-10T15:50:59;100798.56;;;0.97;58.79
28797;BME280;24974;54.444;18.560;2022-12-10T15:53:36;100808.78;;;1.23;59.13
28797;BME280;24974;54.444;18.560;2022-12-10T15:56:08;100800.44;;;0.96;58.94
28797;BME280;24974;54.444;18.560;2022-12-10T15:58:39;100805.66;;;1.15;58.42
28797;BME280;24974;54.444;18.560;2022-12-10T16:01:13;100810.97;;;1.26;58.15
28797;BME280;24974;54.444;18.560;2022-12-10T16:03:44;100802.44;;;1.51;57.92
28797;BME280;24974;54.444;18.560;2022-12-10T16:06:15;100807.53;;;1.14;58.52
28797;BME280;24974;54.444;18.560;2022-12-10T16:08:46;100805.34;;;1.61;58.39
28797;BME280;24974;54.444;18.560;2022-12-10T16:11:18;100798.59;;;1.47;58.78
28797;BME280;24974;54.444;18.560;2022-12-10T16:13:52;100808.72;;;0.90;59.44
28797;BME280;24974;54.444;18.560;2022-12-10T16:16:25;100802.44;;;1.34;58.00
28797;BME280;24974;54.444;18.560;2022-12-10T16:18:56;100804.56;;;1.83;57.11
28797;BME280;24974;54.444;18.560;2022-12-10T16:21:26;100803.22;;;1.47;58.14
28797;BME280;24974;54.444;18.560;2022-12-10T16:23:57;100803.69;;;1.44;59.03
28797;BME280;24974;54.444;18.560;2022-12-10T16:26:28;100800.25;;;1.31;59.09
28797;BME280;24974;54.444;18.560;2022-12-10T16:28:59;100799.28;;;1.54;58.64
28797;BME280;24974;54.444;18.560;2022-12-10T16:31:30;100810.56;;;1.85;57.90
28797;BME280;24974;54.444;18.560;2022-12-10T16:34:01;100801.31;;;1.64;57.90
28797;BME280;24974;54.444;18.560;2022-12-10T16:36:31;100796.59;;;1.93;58.00
28797;BME280;24974;54.444;18.560;2022-12-10T16:39:03;100799.25;;;1.71;58.29
28797;BME280;24974;54.444;18.560;2022-12-10T16:41:35;100797.41;;;1.93;57.35
28797;BME280;24974;54.444;18.560;2022-12-10T16:44:07;100798.28;;;1.77;57.94
28797;BME280;24974;54.444;18.560;2022-12-10T16:46:38;100795.00;;;1.42;58.57
28797;BME280;24974;54.444;18.560;2022-12-10T16:49:09;100793.47;;;1.84;57.96
28797;BME280;24974;54.444;18.560;2022-12-10T16:51:40;100797.97;;;1.95;57.67
28797;BME280;24974;54.444;18.560;2022-12-10T16:54:13;100790.28;;;1.87;58.29
28797;BME280;24974;54.444;18.560;2022-12-10T16:56:44;100794.72;;;1.93;58.20
28797;BME280;24974;54.444;18.560;2022-12-10T16:59:16;100791.56;;;1.46;58.99
28797;BME280;24974;54.444;18.560;2022-12-10T17:01:47;100793.47;;;2.01;58.44
28797;BME280;24974;54.444;18.560;2022-12-10T17:04:17;100793.19;;;2.03;58.58
28797;BME280;24974;54.444;18.560;2022-12-10T17:06:48;100792.41;;;1.85;58.64
28797;BME280;24974;54.444;18.560;2022-12-10T17:09:19;100791.84;;;1.66;59.63
28797;BME280;24974;54.444;18.560;2022-12-10T17:11:50;100788.97;;;1.73;59.79
28797;BME280;24974;54.444;18.560;2022-12-10T17:14:29;100789.34;;;1.99;59.21
28797;BME280;24974;54.444;18.560;2022-12-10T17:17:01;100788.22;;;1.94;59.41
28797;BME280;24974;54.444;18.560;2022-12-10T17:19:36;100790.06;;;1.72;59.96
28797;BME280;24974;54.444;18.560;2022-12-10T17:22:08;100786.94;;;1.63;60.12
28797;BME280;24974;54.444;18.560;2022-12-10T17:24:39;100789.06;;;1.78;59.67
28797;BME280;24974;54.444;18.560;2022-12-10T17:27:17;100787.28;;;1.50;60.40
28797;BME280;24974;54.444;18.560;2022-12-10T17:29:50;100784.72;;;1.60;60.39
28797;BME280;24974;54.444;18.560;2022-12-10T17:32:23;100787.03;;;1.35;61.21
28797;BME280;24974;54.444;18.560;2022-12-10T17:34:54;100786.38;;;1.61;60.34
28797;BME280;24974;54.444;18.560;2022-12-10T17:37:28;100789.91;;;1.45;60.40
28797;BME280;24974;54.444;18.560;2022-12-10T17:40:01;100789.97;;;1.50;60.69
28797;BME280;24974;54.444;18.560;2022-12-10T17:42:31;100798.00;;;1.28;60.98
28797;BME280;24974;54.444;18.560;2022-12-10T17:45:02;100795.75;;;1.37;60.67
28797;BME280;24974;54.444;18.560;2022-12-10T17:47:33;100807.28;;;1.16;61.17
28797;BME280;24974;54.444;18.560;2022-12-10T17:50:27;100802.69;;;1.33;60.50
28797;BME280;24974;54.444;18.560;2022-12-10T17:53:04;100797.69;;;1.25;60.81
28797;BME280;24974;54.444;18.560;2022-12-10T17:55:41;100803.75;;;1.15;60.81
28797;BME280;24974;54.444;18.560;2022-12-10T17:58:12;100802.28;;;1.07;61.17
28797;BME280;24974;54.444;18.560;2022-12-10T18:00:43;100806.03;;;1.06;61.50
28797;BME280;24974;54.444;18.560;2022-12-10T18:03:14;100805.19;;;0.89;61.47
28797;BME280;24974;54.444;18.560;2022-12-10T18:05:45;100799.56;;;1.07;61.11
28797;BME280;24974;54.444;18.560;2022-12-10T18:08:17;100806.47;;;1.15;61.76
28797;BME280;24974;54.444;18.560;2022-12-10T18:10:52;100792.69;;;1.33;60.51
28797;BME280;24974;54.444;18.560;2022-12-10T18:13:23;100792.75;;;1.05;61.21
28797;BME280;24974;54.444;18.560;2022-12-10T18:15:54;100791.63;;;1.34;60.16
28797;BME280;24974;54.444;18.560;2022-12-10T18:18:24;100794.53;;;0.99;61.63
28797;BME280;24974;54.444;18.560;2022-12-10T18:20:55;100794.97;;;1.25;60.45
28797;BME280;24974;54.444;18.560;2022-12-10T18:23:26;100795.94;;;1.02;60.84
28797;BME280;24974;54.444;18.560;2022-12-10T18:25:57;100811.22;;;0.79;61.71
28797;BME280;24974;54.444;18.560;2022-12-10T18:30:58;100807.53;;;1.64;59.42
28797;BME280;24974;54.444;18.560;2022-12-10T18:33:37;100815.19;;;2.06;57.69
28797;BME280;24974;54.444;18.560;2022-12-10T18:36:14;100805.25;;;1.56;59.98
28797;BME280;24974;54.444;18.560;2022-12-10T18:38:46;100807.72;;;2.13;58.41
28797;BME280;24974;54.444;18.560;2022-12-10T18:41:18;100811.53;;;2.34;57.82
28797;BME280;24974;54.444;18.560;2022-12-10T18:43:49;100806.13;;;2.39;57.13
28797;BME280;24974;54.444;18.560;2022-12-10T18:46:23;100823.22;;;2.40;57.07
28797;BME280;24974;54.444;18.560;2022-12-10T18:48:54;100818.72;;;2.07;59.14
28797;BME280;24974;54.444;18.560;2022-12-10T18:51:26;100821.84;;;2.37;57.97
28797;BME280;24974;54.444;18.560;2022-12-10T18:53:57;100818.75;;;2.29;57.79
28797;BME280;24974;54.444;18.560;2022-12-10T18:56:28;100817.44;;;2.31;57.37
28797;BME280;24974;54.444;18.560;2022-12-10T18:59:02;100815.63;;;2.37;57.72
28797;BME280;24974;54.444;18.560;2022-12-10T19:01:33;100818.13;;;2.21;57.76
28797;BME280;24974;54.444;18.560;2022-12-10T19:04:05;100818.75;;;2.29;58.11
28797;BME280;24974;54.444;18.560;2022-12-10T19:06:35;100824.19;;;2.29;57.67
28797;BME280;24974;54.444;18.560;2022-12-10T19:09:13;100819.28;;;2.26;57.50
28797;BME280;24974;54.444;18.560;2022-12-10T19:11:46;100817.44;;;2.09;58.05
28797;BME280;24974;54.444;18.560;2022-12-10T19:14:18;100820.31;;;2.24;57.96
28797;BME280;24974;54.444;18.560;2022-12-10T19:16:50;100804.81;;;2.20;57.71
28797;BME280;24974;54.444;18.560;2022-12-10T19:19:21;100815.34;;;1.78;59.06
28797;BME280;24974;54.444;18.560;2022-12-10T19:21:51;100822.84;;;1.92;58.30
28797;BME280;24974;54.444;18.560;2022-12-10T19:24:22;100821.78;;;2.10;58.43
28797;BME280;24974;54.444;18.560;2022-12-10T19:26:53;100829.00;;;2.05;58.05